createdAt,value
2024-02-27T00:00:49.504Z,17.73
2024-02-27T00:03:52.024Z,22.00
2024-02-27T00:06:56.283Z,22.10
2024-02-27T00:10:13.182Z,25.27
2024-02-27T00:13:18.183Z,24.92
2024-02-27T00:16:23.154Z,23.58
2024-02-27T00:19:29.539Z,22.77
2024-02-27T00:22:33.498Z,23.27
2024-02-27T00:25:40.458Z,23.67
2024-02-27T00:28:50.958Z,29.50
2024-02-27T00:31:55.364Z,30.15
2024-02-27T00:35:00.681Z,30.15
2024-02-27T00:38:06.812Z,33.55
2024-02-27T00:41:12.144Z,30.85
2024-02-27T00:44:15.879Z,32.78
2024-02-27T00:47:21.654Z,37.88
2024-02-27T00:53:32.706Z,28.65
2024-02-27T00:56:38.158Z,28.40
2024-02-27T00:59:44.800Z,28.55
2024-02-27T01:02:49.054Z,34.58
2024-02-27T01:12:13.865Z,28.80
2024-02-27T01:15:19.516Z,31.10
2024-02-27T01:18:22.102Z,24.23
2024-02-27T01:21:28.000Z,33.28
2024-02-27T01:24:31.364Z,31.38
2024-02-27T01:27:35.014Z,34.67
2024-02-27T01:30:41.268Z,34.25
2024-02-27T01:33:49.648Z,32.35
2024-02-27T01:36:59.339Z,32.75
2024-02-27T01:40:10.838Z,32.50
2024-02-27T01:43:34.428Z,33.40
2024-02-27T01:46:38.665Z,34.97
2024-02-27T01:49:46.085Z,39.47
2024-02-27T01:52:55.661Z,32.50
2024-02-27T01:59:26.920Z,29.30
2024-02-27T02:02:36.853Z,33.65
2024-02-27T02:05:41.772Z,35.80
2024-02-27T02:08:58.574Z,34.88
2024-02-27T02:12:02.044Z,33.75
2024-02-27T02:15:05.442Z,24.65
2024-02-27T02:18:08.465Z,31.40
2024-02-27T02:21:13.362Z,36.45
2024-02-27T02:24:18.135Z,31.58
2024-02-27T02:27:20.838Z,35.22
2024-02-27T02:30:24.332Z,33.45
2024-02-27T02:33:29.851Z,26.70
2024-02-27T02:36:33.873Z,35.78
2024-02-27T02:39:37.500Z,32.47
2024-02-27T02:42:40.410Z,38.97
2024-02-27T02:45:44.472Z,45.28
2024-02-27T02:48:47.022Z,39.03
2024-02-27T02:51:49.458Z,40.13
2024-02-27T02:54:51.791Z,39.45
2024-02-27T02:57:54.178Z,45.05
2024-02-27T03:00:57.860Z,44.13
2024-02-27T03:04:00.320Z,40.28
2024-02-27T03:07:04.558Z,50.13
2024-02-27T03:13:12.215Z,48.25
2024-02-27T03:16:22.841Z,44.65
2024-02-27T03:19:29.348Z,46.45
2024-02-27T03:22:36.427Z,49.35
2024-02-27T03:25:45.165Z,54.40
2024-02-27T03:28:48.590Z,44.10
2024-02-27T03:35:13.496Z,47.30
2024-02-27T03:38:20.204Z,44.53
2024-02-27T03:41:38.592Z,46.90
2024-02-27T03:44:48.724Z,62.05
2024-02-27T03:47:55.762Z,61.03
2024-02-27T03:50:59.411Z,56.33
2024-02-27T03:54:02.279Z,54.78
2024-02-27T03:57:06.228Z,56.78
2024-02-27T04:00:13.069Z,56.22
2024-02-27T04:03:19.113Z,54.80
2024-02-27T04:06:30.935Z,56.40
2024-02-27T04:09:34.914Z,54.45
2024-02-27T04:12:37.996Z,52.72
2024-02-27T04:15:43.963Z,52.70
2024-02-27T04:18:51.442Z,51.75
2024-02-27T04:21:53.979Z,46.40
2024-02-27T04:25:04.455Z,53.17
2024-02-27T04:28:10.323Z,49.13
2024-02-27T04:31:16.979Z,52.13
2024-02-27T04:34:27.856Z,47.95
2024-02-27T04:37:38.076Z,46.00
2024-02-27T04:40:45.027Z,44.42
2024-02-27T04:43:51.089Z,40.75
2024-02-27T04:46:56.575Z,44.72
2024-02-27T04:50:00.401Z,42.92
2024-02-27T04:53:03.415Z,47.70
2024-02-27T04:56:11.727Z,42.25
2024-02-27T04:59:23.584Z,47.08
2024-02-27T05:02:33.005Z,46.03
2024-02-27T05:05:41.085Z,38.30
2024-02-27T05:08:49.960Z,43.28
2024-02-27T05:11:57.127Z,41.53
2024-02-27T05:15:06.615Z,39.53
2024-02-27T05:18:10.385Z,43.63
2024-02-27T05:21:17.516Z,34.57
2024-02-27T05:24:24.547Z,44.40
2024-02-27T05:27:27.727Z,42.85
2024-02-27T05:30:32.435Z,43.10
2024-02-27T05:33:34.913Z,42.75
2024-02-27T05:36:39.375Z,45.95
2024-02-27T05:39:42.975Z,43.40
2024-02-27T05:42:48.080Z,39.33
2024-02-27T05:45:50.453Z,42.70
2024-02-27T05:48:57.569Z,37.15
2024-02-27T05:52:02.173Z,41.72
2024-02-27T05:55:06.850Z,39.78
2024-02-27T05:58:15.554Z,40.78
2024-02-27T06:01:24.345Z,43.25
2024-02-27T06:04:30.411Z,37.88
2024-02-27T06:07:35.119Z,39.60
2024-02-27T06:14:04.581Z,42.53
2024-02-27T06:17:12.456Z,44.60
2024-02-27T06:20:35.514Z,46.28
2024-02-27T06:23:39.060Z,45.33
2024-02-27T06:30:07.209Z,39.28
2024-02-27T06:33:15.929Z,47.78
2024-02-27T06:36:26.376Z,49.33
2024-02-27T06:39:31.674Z,44.22
2024-02-27T06:42:39.203Z,42.72
2024-02-27T06:45:44.761Z,44.45
2024-02-27T06:48:50.288Z,40.08
2024-02-27T06:51:58.636Z,43.28
2024-02-27T06:55:04.767Z,45.03
2024-02-27T06:58:08.874Z,40.92
2024-02-27T07:01:15.826Z,45.78
2024-02-27T07:04:23.606Z,45.53
2024-02-27T07:07:34.350Z,47.10
2024-02-27T07:11:12.199Z,45.30
2024-02-27T07:14:20.868Z,47.17
2024-02-27T07:17:28.295Z,54.28
2024-02-27T07:20:32.929Z,42.78
2024-02-27T07:23:35.771Z,42.67
2024-02-27T07:26:39.292Z,43.17
2024-02-27T07:29:42.011Z,49.90
2024-02-27T07:32:48.213Z,49.58
2024-02-27T07:35:54.766Z,44.65
2024-02-27T07:39:07.946Z,42.25
2024-02-27T07:42:10.563Z,45.58
2024-02-27T07:45:20.952Z,51.25
2024-02-27T07:48:25.805Z,45.90
2024-02-27T07:51:30.529Z,44.67
2024-02-27T07:54:36.816Z,51.20
2024-02-27T07:57:42.146Z,48.72
2024-02-27T08:00:50.064Z,48.45
2024-02-27T08:03:56.861Z,56.75
2024-02-27T08:07:05.593Z,51.25
2024-02-27T08:10:13.068Z,51.50
2024-02-27T08:13:23.970Z,52.95
2024-02-27T08:16:29.105Z,59.40
2024-02-27T08:19:37.190Z,65.78
2024-02-27T08:22:42.102Z,55.08
2024-02-27T08:25:48.683Z,55.35
2024-02-27T08:28:56.860Z,57.80
2024-02-27T08:32:04.152Z,52.20
2024-02-27T08:35:07.584Z,50.83
2024-02-27T08:38:14.384Z,53.10
2024-02-27T08:41:24.532Z,46.78
2024-02-27T08:44:28.297Z,51.63
2024-02-27T08:47:41.606Z,53.67
2024-02-27T08:50:49.845Z,48.92
2024-02-27T08:53:55.488Z,47.10
2024-02-27T08:56:59.145Z,49.42
2024-02-27T09:00:07.824Z,42.85
2024-02-27T09:03:15.407Z,49.00
2024-02-27T09:06:24.247Z,47.35
2024-02-27T09:09:36.643Z,55.92
2024-02-27T09:12:46.234Z,53.10
2024-02-27T09:15:50.608Z,50.15
2024-02-27T09:18:56.722Z,51.92
2024-02-27T09:22:03.051Z,48.38
2024-02-27T09:25:15.283Z,50.35
2024-02-27T09:28:32.758Z,48.17
2024-02-27T09:31:38.283Z,53.08
2024-02-27T09:34:46.131Z,45.08
2024-02-27T09:37:49.925Z,43.42
2024-02-27T09:40:58.590Z,45.80
2024-02-27T09:44:03.501Z,49.17
2024-02-27T09:47:11.082Z,44.00
2024-02-27T09:50:20.386Z,41.08
2024-02-27T09:53:27.609Z,47.88
2024-02-27T09:56:32.766Z,43.75
2024-02-27T09:59:43.208Z,46.75
2024-02-27T10:06:15.551Z,51.20
2024-02-27T10:09:33.823Z,70.18
2024-02-27T10:12:41.884Z,50.83
2024-02-27T10:15:48.240Z,50.60
2024-02-27T10:18:51.931Z,44.90
2024-02-27T10:21:56.011Z,59.42
2024-02-27T10:25:08.425Z,45.90
2024-02-27T10:28:16.321Z,47.40
2024-02-27T10:31:29.657Z,42.35
2024-02-27T10:34:35.112Z,43.03
2024-02-27T10:37:47.975Z,42.47
2024-02-27T10:40:57.028Z,40.80
2024-02-27T10:44:07.553Z,44.95
2024-02-27T10:47:20.489Z,43.78
2024-02-27T10:50:25.548Z,40.80
2024-02-27T10:53:36.178Z,44.50
2024-02-27T10:56:43.592Z,37.28
2024-02-27T10:59:54.987Z,36.65
2024-02-27T11:03:01.806Z,36.25
2024-02-27T11:06:15.746Z,36.95
2024-02-27T11:09:44.530Z,35.13
2024-02-27T11:12:50.846Z,38.55
2024-02-27T11:16:00.868Z,37.50
2024-02-27T11:19:18.058Z,41.67
2024-02-27T11:22:24.636Z,38.22
2024-02-27T11:25:32.725Z,34.80
2024-02-27T11:28:42.297Z,31.35
2024-02-27T11:31:46.758Z,31.48
2024-02-27T11:34:59.195Z,31.25
2024-02-27T11:38:11.271Z,30.88
2024-02-27T11:41:37.725Z,36.40
2024-02-27T11:45:06.714Z,32.60
2024-02-27T11:48:21.008Z,33.08
2024-02-27T11:51:27.527Z,33.55
2024-02-27T11:54:38.264Z,32.65
2024-02-27T11:57:42.939Z,34.13
2024-02-27T12:00:52.003Z,32.90
2024-02-27T12:04:00.884Z,32.58
2024-02-27T12:07:04.095Z,32.28
2024-02-27T12:10:27.515Z,36.03
2024-02-27T12:13:30.199Z,34.45
2024-02-27T12:16:32.868Z,37.20
2024-02-27T12:19:36.834Z,36.10
2024-02-27T12:22:52.721Z,39.70
2024-02-27T12:25:55.369Z,41.40
2024-02-27T12:29:02.868Z,37.33
2024-02-27T12:32:10.432Z,36.97
2024-02-27T12:35:21.287Z,38.47
2024-02-27T12:38:42.030Z,37.85
2024-02-27T12:41:57.746Z,38.45
2024-02-27T12:45:00.926Z,40.75
2024-02-27T12:48:08.771Z,40.15
2024-02-27T12:51:17.996Z,39.85
2024-02-27T12:54:29.920Z,35.45
2024-02-27T12:57:36.586Z,33.90
2024-02-27T13:00:48.330Z,33.60
2024-02-27T13:03:55.091Z,33.28
2024-02-27T13:07:00.321Z,38.58
2024-02-27T13:10:03.409Z,26.40
2024-02-27T13:13:10.861Z,36.08
2024-02-27T13:16:15.415Z,37.03
2024-02-27T13:19:22.556Z,33.10
2024-02-27T13:22:28.623Z,31.98
2024-02-27T13:25:44.116Z,30.67
2024-02-27T13:32:01.589Z,26.35
2024-02-27T13:35:07.209Z,28.95
2024-02-27T13:38:18.621Z,28.30
2024-02-27T13:41:23.995Z,28.23
2024-02-27T13:44:27.038Z,28.75
2024-02-27T13:47:33.059Z,30.05
2024-02-27T13:50:43.876Z,27.50
2024-02-27T13:53:48.973Z,26.35
2024-02-27T13:56:59.646Z,27.17
2024-02-27T14:00:14.002Z,28.52
2024-02-27T14:03:22.439Z,27.02
2024-02-27T14:09:57.625Z,25.52
2024-02-27T14:13:07.132Z,28.00
2024-02-27T14:16:16.386Z,25.88
2024-02-27T14:19:34.828Z,26.30
2024-02-27T14:22:42.495Z,25.45
2024-02-27T14:25:57.166Z,23.75
2024-02-27T14:32:28.430Z,23.65
2024-02-27T14:35:36.463Z,22.33
2024-02-27T14:42:08.849Z,26.50
2024-02-27T14:45:20.289Z,24.80
2024-02-27T14:48:29.859Z,24.17
2024-02-27T14:51:36.129Z,23.92
2024-02-27T14:54:43.111Z,24.00
2024-02-27T14:57:49.397Z,24.35
2024-02-27T15:00:54.622Z,25.15
2024-02-27T15:04:09.090Z,27.15
2024-02-27T15:07:16.286Z,22.67
2024-02-27T15:10:20.484Z,25.30
2024-02-27T15:13:37.238Z,23.25
2024-02-27T15:16:46.218Z,22.48
2024-02-27T15:20:02.272Z,23.38
2024-02-27T15:23:07.767Z,24.67
2024-02-27T15:26:17.037Z,23.63
2024-02-27T15:29:25.380Z,22.05
2024-02-27T15:32:32.962Z,21.98
2024-02-27T15:35:49.756Z,22.95
2024-02-27T15:39:09.679Z,22.42
2024-02-27T15:45:48.762Z,21.80
2024-02-27T15:48:55.207Z,24.00
2024-02-27T15:55:33.042Z,23.27
2024-02-27T16:02:00.800Z,25.25
2024-02-27T16:05:10.936Z,21.05
2024-02-27T16:08:18.143Z,24.70
2024-02-27T16:11:22.572Z,21.95
2024-02-27T16:14:25.533Z,22.98
2024-02-27T16:17:40.475Z,22.92
2024-02-27T16:20:46.062Z,24.83
2024-02-27T16:23:56.225Z,24.77
2024-02-27T16:27:08.653Z,22.08
2024-02-27T16:30:16.731Z,26.10
2024-02-27T16:33:22.253Z,22.33
2024-02-27T16:36:27.265Z,23.75
2024-02-27T16:39:35.145Z,22.95
2024-02-27T16:42:44.385Z,23.27
2024-02-27T16:45:51.302Z,21.13
2024-02-27T16:49:05.366Z,22.70
2024-02-27T16:52:07.830Z,23.33
2024-02-27T16:55:21.475Z,21.15
2024-02-27T16:58:29.249Z,17.15
2024-02-27T17:01:33.860Z,23.42
2024-02-27T17:04:39.727Z,27.23
2024-02-27T17:07:55.202Z,41.22
2024-02-27T17:11:01.154Z,34.67
2024-02-27T17:14:04.076Z,23.02
2024-02-27T17:17:10.950Z,27.52
2024-02-27T17:20:21.101Z,24.77
2024-02-27T17:23:27.099Z,24.45
2024-02-27T17:29:55.925Z,27.77
2024-02-27T17:33:01.433Z,24.00
2024-02-27T17:36:07.046Z,21.92
2024-02-27T17:39:11.988Z,31.42
2024-02-27T17:42:20.436Z,43.35
2024-02-27T17:45:24.414Z,37.67
2024-02-27T17:48:30.018Z,25.70
2024-02-27T17:51:38.162Z,24.45
2024-02-27T17:54:45.264Z,23.52
2024-02-27T17:57:49.043Z,22.92
2024-02-27T18:00:54.752Z,22.27
2024-02-27T18:04:02.679Z,23.13
2024-02-27T18:07:08.177Z,22.10
2024-02-27T18:10:26.205Z,22.45
2024-02-27T18:13:32.403Z,24.02
2024-02-27T18:16:41.981Z,21.95
2024-02-27T18:19:51.682Z,23.60
2024-02-27T18:22:57.413Z,26.02
2024-02-27T18:26:02.416Z,27.45
2024-02-27T18:29:07.645Z,23.95
2024-02-27T18:32:14.590Z,25.10
2024-02-27T18:35:20.557Z,25.98
2024-02-27T18:38:28.974Z,29.88
2024-02-27T18:41:44.190Z,29.05
2024-02-27T18:44:53.246Z,27.73
2024-02-27T18:47:56.921Z,25.98
2024-02-27T18:51:03.335Z,27.48
2024-02-27T18:54:10.559Z,27.98
2024-02-27T18:57:17.879Z,27.45
2024-02-27T19:00:21.946Z,30.55
2024-02-27T19:06:28.558Z,35.50
2024-02-27T19:09:33.561Z,22.07
2024-02-27T19:12:39.279Z,25.40
2024-02-27T19:15:46.277Z,26.65
2024-02-27T19:18:54.323Z,26.70
2024-02-27T19:21:59.090Z,24.40
2024-02-27T19:28:28.704Z,25.63
2024-02-27T19:31:35.212Z,26.27
2024-02-27T19:34:37.563Z,27.27
2024-02-27T19:37:40.938Z,26.88
2024-02-27T19:40:56.810Z,21.85
2024-02-27T19:44:01.926Z,25.05
2024-02-27T19:50:22.164Z,24.67
2024-02-27T19:53:25.512Z,24.35
2024-02-27T19:56:27.958Z,24.50
2024-02-27T19:59:31.333Z,24.35
2024-02-27T20:02:46.781Z,23.98
2024-02-27T20:05:54.719Z,22.90
2024-02-27T20:09:07.475Z,21.77
2024-02-27T20:12:10.616Z,24.05
2024-02-27T20:15:17.802Z,24.70
2024-02-27T20:18:35.138Z,26.17
2024-02-27T20:21:40.240Z,23.08
2024-02-27T20:24:51.311Z,24.20
2024-02-27T20:27:58.651Z,25.30
2024-02-27T20:31:14.618Z,24.30
2024-02-27T20:34:26.580Z,23.33
2024-02-27T20:37:33.591Z,23.38
2024-02-27T20:40:38.068Z,22.85
2024-02-27T20:43:48.171Z,23.58
2024-02-27T20:46:53.276Z,20.60
2024-02-27T20:49:56.734Z,20.95
2024-02-27T20:53:00.823Z,17.35
2024-02-27T20:59:27.735Z,21.30
2024-02-27T21:02:32.907Z,22.10
2024-02-27T21:05:38.126Z,26.48
2024-02-27T21:08:52.121Z,25.48
2024-02-27T21:15:20.382Z,16.77
2024-02-27T21:18:30.163Z,25.88
2024-02-27T21:21:36.407Z,24.13
2024-02-27T21:24:46.956Z,22.55
2024-02-27T21:27:59.318Z,21.42
2024-02-27T21:31:12.021Z,25.52
2024-02-27T21:34:19.976Z,26.63
2024-02-27T21:37:37.995Z,25.92
2024-02-27T21:40:42.965Z,21.85
2024-02-27T21:43:50.076Z,22.20
2024-02-27T21:46:56.753Z,26.10
2024-02-27T21:49:59.978Z,20.02
2024-02-27T21:53:06.568Z,23.48
2024-02-27T21:56:08.960Z,21.58
2024-02-27T21:59:16.431Z,20.95
2024-02-27T22:02:25.559Z,19.40
2024-02-27T22:05:47.578Z,22.33
2024-02-27T22:09:01.067Z,19.33
2024-02-27T22:12:06.853Z,20.83
2024-02-27T22:15:13.815Z,22.00
2024-02-27T22:18:25.720Z,19.75
2024-02-27T22:21:34.332Z,19.95
2024-02-27T22:24:37.077Z,22.77
2024-02-27T22:27:41.434Z,19.67
2024-02-27T22:30:46.318Z,21.63
2024-02-27T22:33:50.256Z,20.30
2024-02-27T22:36:53.233Z,19.98
2024-02-27T22:39:56.148Z,16.83
2024-02-27T22:42:58.975Z,19.85
2024-02-27T22:46:01.423Z,19.58
2024-02-27T22:49:06.595Z,18.65
2024-02-27T22:52:12.652Z,20.02
2024-02-27T22:55:19.638Z,18.60
2024-02-27T22:58:30.258Z,19.48
2024-02-27T23:01:36.690Z,20.50
2024-02-27T23:04:51.926Z,18.88
2024-02-27T23:08:07.260Z,19.27
2024-02-27T23:11:17.146Z,20.40
2024-02-27T23:17:38.375Z,18.95
2024-02-27T23:20:52.066Z,20.33
2024-02-27T23:24:01.692Z,19.90
2024-02-27T23:27:14.174Z,19.40
2024-02-27T23:30:25.691Z,21.52
2024-02-27T23:33:32.800Z,20.80
2024-02-27T23:36:37.992Z,24.40
2024-02-27T23:39:58.257Z,24.23
2024-02-27T23:43:11.583Z,21.95
2024-02-27T23:46:17.103Z,20.67
2024-02-27T23:49:49.222Z,19.90
2024-02-27T23:52:53.971Z,19.77
2024-02-27T23:55:58.205Z,20.57
2024-02-27T23:59:02.379Z,19.63
